Latest Weather Observations for Ocean Reef

IDW60801

Issued at 12:34 pm WST Friday 23 August 2019 (issued every 10 minutes, with the page automatically refreshed every 10 minutes)

About weather observations | Map of weather stations | Latest weather observations for WA | Other Formats
Station Details ID: 009214 Name: OCEAN REEF Lat: -31.76 Lon: 115.73 Height: 10.0 m
Data from the previous 72 hours. | See also: Recent months at Ocean Reef
Date/Time
WST
Temp
°C
App
Temp
°C
Dew
Point
°C
Rel
Hum
%
Delta-T
°C
Wind Press
QNH
hPa
Press
MSL
hPa
Rain since
9am
mm
Dir  Spd
km/h
Gust
km/h
Spd
kts
Gust
kts
23/12:30pm - - - - - S 35 46 19 25 - - -
23/12:00pm - - - - - SSW 32 39 17 21 - - -
23/11:30am - - - - - SW 35 48 19 26 - - -
23/11:00am - - - - - SW 39 50 21 27 - - -
23/10:30am - - - - - SW 37 50 20 27 - - -
23/10:00am - - - - - WSW 35 44 19 24 - - -
23/09:30am - - - - - SW 35 46 19 25 - - -
23/09:01am - - - - - SW 35 54 19 29 - - -
23/09:00am - - - - - SW 35 46 19 25 - - -
23/08:30am - - - - - SW 44 56 24 30 - - -
23/08:12am - - - - - SW 30 48 16 26 - - -
23/08:00am - - - - - SW 32 39 17 21 - - -
23/07:30am - - - - - W 41 59 22 32 - - -
23/07:21am - - - - - WSW 30 59 16 32 - - -
23/07:00am - - - - - SW 28 33 15 18 - - -
23/06:30am - - - - - SW 44 56 24 30 - - -
23/06:16am - - - - - WSW 35 54 19 29 - - -
23/06:00am - - - - - SW 35 43 19 23 - - -
23/05:30am - - - - - SW 35 48 19 26 - - -
23/05:00am - - - - - SW 39 48 21 26 - - -
23/04:30am - - - - - SW 41 52 22 28 - - -
23/04:00am - - - - - SW 46 56 25 30 - - -
23/03:30am - - - - - SW 41 50 22 27 - - -
23/03:00am - - - - - SW 26 33 14 18 - - -
23/02:34am - - - - - WSW 32 52 17 28 - - -
23/02:30am - - - - - SW 19 37 10 20 - - -
23/02:29am - - - - - SSW 17 35 9 19 - - -
23/02:00am - - - - - ESE 7 11 4 6 - - -
23/01:30am - - - - - WSW 20 26 11 14 - - -
23/01:00am - - - - - WSW 20 26 11 14 - - -
23/12:30am - - - - - SW 26 35 14 19 - - -
23/12:00am - - - - - SW 41 52 22 28 - - -
 
Date/Time
WST
Temp
°C
App
Temp
°C
Dew
Point
°C
Rel
Hum
%
Delta-T
°C
Wind Press
QNH
hPa
Press
MSL
hPa
Rain since
9am
mm
Dir  Spd
km/h
Gust
km/h
Spd
kts
Gust
kts
22/11:30pm - - - - - SW 39 48 21 26 - - -
22/11:00pm - - - - - SW 44 59 24 32 - - -
22/10:53pm - - - - - SW 35 56 19 30 - - -
22/10:30pm - - - - - SW 39 52 21 28 - - -
22/10:15pm - - - - - SW 41 61 22 33 - - -
22/10:00pm - - - - - SW 39 52 21 28 - - -
22/09:30pm - - - - - SW 39 50 21 27 - - -
22/09:00pm - - - - - SW 30 35 16 19 - - -
22/08:30pm - - - - - WSW 33 41 18 22 - - -
22/08:00pm - - - - - WSW 20 35 11 19 - - -
22/07:40pm - - - - - NNW 30 56 16 30 - - -
22/07:39pm - - - - - NNW 30 56 16 30 - - -
22/07:38pm - - - - - N 30 56 16 30 - - -
22/07:30pm - - - - - N 30 41 16 22 - - -
22/07:00pm - - - - - N 32 41 17 22 - - -
22/06:30pm - - - - - NNW 37 50 20 27 - - -
22/06:02pm - - - - - NNW 37 56 20 30 - - -
22/06:00pm - - - - - NNW 35 48 19 26 - - -
22/05:30pm - - - - - NNW 39 48 21 26 - - -
22/05:00pm - - - - - NNW 39 46 21 25 - - -
22/04:30pm - - - - - NNW 39 46 21 25 - - -
22/04:00pm - - - - - NNW 37 43 20 23 - - -
22/03:30pm - - - - - NNW 33 37 18 20 - - -
22/03:00pm - - - - - NNW 37 48 20 26 - - -
22/02:30pm - - - - - NW 39 48 21 26 - - -
22/02:00pm - - - - - WNW 28 33 15 18 - - -
22/01:30pm - - - - - WNW 30 35 16 19 - - -
22/01:00pm - - - - - NW 30 35 16 19 - - -
22/12:30pm - - - - - NNW 35 41 19 22 - - -
22/12:00pm - - - - - NNW 30 48 16 26 - - -
22/11:30am - - - - - N 20 33 11 18 - - -
22/11:00am - - - - - NNE 22 35 12 19 - - -
22/10:30am - - - - - NNE 26 37 14 20 - - -
22/10:00am - - - - - NNE 24 35 13 19 - - -
22/09:30am - - - - - NE 30 37 16 20 - - -
22/09:00am - - - - - NE 28 37 15 20 - - -
22/08:30am - - - - - NE 28 37 15 20 - - -
22/08:00am - - - - - NE 30 37 16 20 - - -
22/07:30am - - - - - NE 32 39 17 21 - - -
22/07:00am - - - - - NE 30 37 16 20 - - -
22/06:30am - - - - - NE 30 37 16 20 - - -
22/06:00am - - - - - NE 28 39 15 21 - - -
22/05:30am - - - - - NE 28 39 15 21 - - -
22/05:00am - - - - - NNE 19 30 10 16 - - -
22/04:30am - - - - - NNE 30 39 16 21 - - -
22/04:28am - - - - - NNE 30 39 16 21 - - -
22/04:00am - - - - - N 15 28 8 15 - - -
22/03:30am - - - - - N 24 35 13 19 - - -
22/03:00am - - - - - NNE 17 30 9 16 - - -
22/02:30am - - - - - NNW 15 19 8 10 - - -
22/02:00am - - - - - N 22 33 12 18 - - -
22/01:30am - - - - - N 11 19 6 10 - - -
22/01:00am - - - - - NE 17 24 9 13 - - -
22/12:30am - - - - - N 15 24 8 13 - - -
22/12:00am - - - - - NE 20 26 11 14 - - -
 
Date/Time
WST
Temp
°C
App
Temp
°C
Dew
Point
°C
Rel
Hum
%
Delta-T
°C
Wind Press
QNH
hPa
Press
MSL
hPa
Rain since
9am
mm
Dir  Spd
km/h
Gust
km/h
Spd
kts
Gust
kts
21/11:30pm - - - - - NE 24 30 13 16 - - -
21/11:00pm - - - - - NE 19 24 10 13 - - -
21/10:30pm - - - - - ENE 24 28 13 15 - - -
21/10:00pm - - - - - ENE 24 28 13 15 - - -
21/09:30pm - - - - - ENE 20 24 11 13 - - -
21/09:00pm - - - - - ENE 19 20 10 11 - - -
21/08:30pm - - - - - ENE 17 20 9 11 - - -
21/08:00pm - - - - - ENE 17 19 9 10 - - -
21/07:30pm - - - - - ENE 17 17 9 9 - - -
21/07:00pm - - - - - ENE 13 13 7 7 - - -
21/06:30pm - - - - - CALM 0 0 0 0 - - -
21/06:00pm - - - - - NE 9 13 5 7 - - -
21/05:30pm - - - - - NE 11 15 6 8 - - -
21/05:00pm - - - - - NE 15 22 8 12 - - -
21/04:30pm - - - - - NE 19 30 10 16 - - -
21/04:00pm - - - - - NE 17 24 9 13 - - -
21/03:30pm - - - - - NNE 15 26 8 14 - - -
21/03:00pm - - - - - NNE 17 26 9 14 - - -
21/02:30pm - - - - - NNE 19 28 10 15 - - -
21/02:00pm - - - - - N 19 28 10 15 - - -
21/01:30pm - - - - - N 17 22 9 12 - - -
21/01:00pm - - - - - N 17 28 9 15 - - -
21/12:30pm - - - - - N 22 33 12 18 - - -
21/12:00pm - - - - - NNE 19 28 10 15 - - -
21/11:30am - - - - - N 20 32 11 17 - - -
21/11:00am - - - - - N 17 35 9 19 - - -
21/10:30am - - - - - NNW 19 30 10 16 - - -
21/10:00am - - - - - N 19 33 10 18 - - -
21/09:30am - - - - - NNE 15 24 8 13 - - -
21/09:00am - - - - - NNE 13 19 7 10 - - -
21/08:30am - - - - - NNE 15 20 8 11 - - -
21/08:00am - - - - - N 6 9 3 5 - - -
21/07:30am - - - - - NNE 7 11 4 6 - - -
21/07:00am - - - - - NE 13 17 7 9 - - -
21/06:30am - - - - - NE 15 19 8 10 - - -
21/06:00am - - - - - NE 13 19 7 10 - - -
21/05:30am - - - - - NE 11 17 6 9 - - -
21/05:00am - - - - - ENE 19 28 10 15 - - -
21/04:30am - - - - - ENE 20 32 11 17 - - -
21/04:00am - - - - - ENE 22 32 12 17 - - -
21/03:30am - - - - - ENE 24 32 13 17 - - -
21/03:00am - - - - - ENE 19 28 10 15 - - -
21/02:30am - - - - - ENE 20 32 11 17 - - -
21/02:00am - - - - - ENE 13 17 7 9 - - -
21/01:30am - - - - - E 13 17 7 9 - - -
21/01:00am - - - - - ENE 17 26 9 14 - - -
21/12:30am - - - - - ENE 17 22 9 12 - - -
21/12:00am - - - - - ENE 17 19 9 10 - - -
 
Date/Time
WST
Temp
°C
App
Temp
°C
Dew
Point
°C
Rel
Hum
%
Delta-T
°C
Wind Press
QNH
hPa
Press
MSL
hPa
Rain since
9am
mm
Dir  Spd
km/h
Gust
km/h
Spd
kts
Gust
kts
20/11:30pm - - - - - E 15 17 8 9 - - -
20/11:00pm - - - - - E 15 17 8 9 - - -
20/10:30pm - - - - - E 15 17 8 9 - - -
20/10:00pm - - - - - E 15 17 8 9 - - -
20/09:30pm - - - - - E 15 15 8 8 - - -
20/09:00pm - - - - - E 13 15 7 8 - - -
20/08:30pm - - - - - ENE 13 17 7 9 - - -
20/08:00pm - - - - - E 13 15 7 8 - - -
20/07:30pm - - - - - ENE 13 15 7 8 - - -
20/07:00pm - - - - - E 11 13 6 7 - - -
20/06:30pm - - - - - SE 9 9 5 5 - - -
20/06:00pm - - - - - SSE 13 15 7 8 - - -
20/05:30pm - - - - - S 17 20 9 11 - - -
20/05:00pm - - - - - S 17 20 9 11 - - -
20/04:30pm - - - - - S 15 19 8 10 - - -
20/04:00pm - - - - - S 15 19 8 10 - - -
20/03:30pm - - - - - S 17 19 9 10 - - -
20/03:00pm - - - - - SSW 13 17 7 9 - - -
20/02:30pm - - - - - SSW 15 17 8 9 - - -
20/02:00pm - - - - - SSW 17 19 9 10 - - -
20/01:30pm - - - - - SW 17 19 9 10 - - -
20/01:00pm - - - - - NNW 13 19 7 10 - - -

Other formats

Comma delimited format used in spreadsheet applications
http://www.bom.gov.au/fwo/IDW60801/IDW60801.94607.axf

JavaScript Object Notation format (JSON) in row-major order
http://www.bom.gov.au/fwo/IDW60801/IDW60801.94607.json

Data quality

Most of these data are generated automatically and are frequently updated. Quality checks on data are not normally performed. It is possible for incorrect values to appear. Refer to information at About Latest Weather Observations and please check the disclaimer before using these data.